Rock Hall, Maryland
Current Conditions -  °F | °C
As of 2:45 PM on Wednesday 28 Jan 2015 (Local Time) from KMTN Reporting Station
Clear Clear  
Wind Chill: 29°   Ceiling: Unl
Heat Index: 37°   Visibility: 10mi
Dew Point:   Wind: 14mph
Humidity: 28%   Direction: 310°NW
Pressure: 30.2"   Gusts: 20mph
Location:  39.14°N, 76.23°W
Report Text: KMTN 281945Z 31012G17KT 10SM SKC 03/M14 A3020
Loading
Personal Weather Stations






























Interactive Weather Map New forecast layout! Learn more

10-Day Weather Forecast

Advertisements
Track Severe Weather on mobile